Kyburz, CA

4:25 PM PST on March 05, 2015 (GMT -0800)
North Upper Truckee | Change Station
CLOSE
Current Station
Personal Weather Station
Location: South Lake Tahoe, CA
Elevation: 6549 ft
Nearby Weather Stations

Elev 6549 ft 38.86 °N, 120.04 °W | Updated 16 seconds ago

Clear
Clear
46.7 °F
Feels Like 47 °F
N
1.4
Wind Variable Wind from WSW
Gusts 1.4 mph

Today
High -- | Low -- °F
--% Chance of Precip.
Yesterday
High -- | Low -- °F
Precip. -- in
6:27 AM 5:57 PM
Full, 100% visible
Pressure 30.33 in
Visibility 10.0 miles
Clouds Clear
Windchill 47 °F
Dew Point 21 °F
Humidity 35%
Rainfall in
Snow Depth Not available.
UV 2 out of 12
Pollen 4.80 out of 12
Air Quality Not available.
Flu Activity Not available.
METAR KTVL 052353Z AUTO 02006KT 10SM CLR 13/M10 A3035 RMK AO2 SLP269 T01281100 10133 20061 56004

More Conditions Fewer Conditions

Pressure 30.33 in
Visibility 10.0 miles
Clouds Clear
Windchill 47 °F
Dew Point 21 °F
Humidity 35%
Rainfall in
Snow Depth Not available.
UV 2 out of 12
Pollen 4.80 out of 12
Air Quality Not available.
Flu Activity Not available.
METAR KTVL 052353Z AUTO 02006KT 10SM CLR 13/M10 A3035 RMK AO2 SLP269 T01281100 10133 20061 56004

More Conditions Fewer Conditions

10-Day Weather Forecast

Almanac

Astronomy

Mar. 05, 2015 Rise Set
Actual Time
Civil Twilight
Nautical Twilight
Astronomical Twilight
Moon
Length of Visible Light
Length of Day
Tomorrow will be .
, % of the Moon is Illuminated

Today's Extremes

State Highs State Lows

Community

WunderPhotos

Upload Photos

1,803,070 photos uploaded!

WunderBlogs® & News

Nearby

Air Quality

  Air Quality AQ Index Pollutant
Not available.

Snow Depth

Station Depth Elevation

Earthquake Activity

City Distance Mag. Time & Date
Minimum magnitude displayed is 2.5.

Coastal Water Temperatures

Place Temperature

Nearby Weather Stations